createdAt,value
2023-01-01T00:01:47.373Z,41.97
2023-01-01T00:04:21.095Z,42.22
2023-01-01T00:06:49.107Z,41.97
2023-01-01T00:09:38.151Z,36.67
2023-01-01T00:12:38.144Z,37.08
2023-01-01T00:15:06.450Z,37.90
2023-01-01T00:17:37.006Z,40.20
2023-01-01T00:20:17.524Z,41.60
2023-01-01T00:22:55.687Z,41.47
2023-01-01T00:25:32.615Z,43.63
2023-01-01T00:28:10.914Z,43.00
2023-01-01T00:30:44.990Z,47.67
2023-01-01T00:35:45.367Z,61.72
2023-01-01T00:38:13.424Z,66.07
2023-01-01T00:40:43.043Z,62.83
2023-01-01T00:43:21.905Z,55.83
2023-01-01T00:45:53.372Z,55.60
2023-01-01T00:48:24.452Z,55.53
2023-01-01T00:54:25.019Z,58.07
2023-01-01T00:57:02.537Z,54.90
2023-01-01T00:59:32.839Z,53.75
2023-01-01T01:02:03.686Z,55.47
2023-01-01T01:04:32.775Z,59.22
2023-01-01T01:07:04.578Z,60.08
2023-01-01T01:10:12.833Z,61.40
2023-01-01T01:12:52.609Z,61.28
2023-01-01T01:23:17.571Z,58.83
2023-01-01T01:26:29.078Z,56.90
2023-01-01T01:29:00.157Z,56.80
2023-01-01T01:31:39.761Z,57.45
2023-01-01T01:34:16.275Z,58.17
2023-01-01T01:36:47.911Z,57.33
2023-01-01T01:39:23.148Z,59.30
2023-01-01T01:41:56.577Z,52.67
2023-01-01T01:44:48.657Z,59.22
2023-01-01T01:47:28.347Z,55.10
2023-01-01T01:50:05.792Z,56.92
2023-01-01T01:52:41.139Z,57.08
2023-01-01T01:55:10.248Z,58.17
2023-01-01T01:57:40.522Z,58.97
2023-01-01T02:00:11.521Z,64.43
2023-01-01T02:02:53.858Z,63.22
2023-01-01T02:05:22.553Z,66.43
2023-01-01T02:07:51.594Z,64.75
2023-01-01T02:10:19.369Z,61.65
2023-01-01T02:12:47.209Z,67.47
2023-01-01T02:15:15.265Z,67.30
2023-01-01T02:18:05.519Z,63.88
2023-01-01T02:21:00.112Z,57.97
2023-01-01T02:23:54.993Z,66.65
2023-01-01T02:26:38.832Z,61.72
2023-01-01T02:29:25.532Z,63.70
2023-01-01T02:32:01.789Z,60.40
2023-01-01T02:34:38.630Z,55.55
2023-01-01T02:37:08.803Z,54.35
2023-01-01T02:39:42.565Z,56.13
2023-01-01T02:42:10.133Z,50.80
2023-01-01T02:44:42.362Z,61.22
2023-01-01T02:47:16.579Z,54.15
2023-01-01T02:50:13.892Z,60.28
2023-01-01T02:52:50.751Z,61.03
2023-01-01T02:55:37.341Z,56.92
2023-01-01T02:58:30.864Z,53.83
2023-01-01T03:01:10.197Z,55.50
2023-01-01T03:03:48.027Z,53.28
2023-01-01T03:06:27.232Z,54.45
2023-01-01T03:09:00.670Z,56.65
2023-01-01T03:11:37.551Z,56.15
2023-01-01T03:14:29.145Z,54.83
2023-01-01T03:17:04.714Z,53.67
2023-01-01T03:19:39.358Z,54.10
2023-01-01T03:22:16.399Z,55.13
2023-01-01T03:24:50.390Z,55.20
2023-01-01T03:27:43.082Z,52.50
2023-01-01T03:30:14.337Z,53.40
2023-01-01T03:33:03.894Z,51.67
2023-01-01T03:35:40.654Z,48.70
2023-01-01T03:38:18.058Z,51.53
2023-01-01T03:40:49.035Z,48.63
2023-01-01T03:43:40.657Z,47.88
2023-01-01T03:46:10.629Z,45.28
2023-01-01T03:49:02.619Z,45.63
2023-01-01T03:51:56.498Z,42.13
2023-01-01T03:54:31.797Z,41.58
2023-01-01T03:57:28.724Z,41.70
2023-01-01T04:00:15.068Z,38.33
2023-01-01T04:02:55.306Z,40.15
2023-01-01T04:05:24.606Z,39.60
2023-01-01T04:07:53.643Z,41.28
2023-01-01T04:10:22.789Z,39.05
2023-01-01T04:12:53.540Z,37.80
2023-01-01T04:15:24.800Z,38.33
2023-01-01T04:17:53.310Z,39.35
2023-01-01T04:20:21.647Z,35.78
2023-01-01T04:22:49.184Z,36.55
2023-01-01T04:25:20.333Z,37.97
2023-01-01T04:27:47.865Z,34.90
2023-01-01T04:30:17.183Z,35.80
2023-01-01T04:32:45.436Z,35.72
2023-01-01T04:35:14.734Z,37.65
2023-01-01T04:37:44.199Z,33.20
2023-01-01T04:40:13.070Z,32.72
2023-01-01T04:42:40.637Z,31.45
2023-01-01T04:45:09.335Z,32.33
2023-01-01T04:47:36.966Z,31.65
2023-01-01T04:50:05.032Z,32.10
2023-01-01T04:52:32.500Z,31.65
2023-01-01T04:55:00.094Z,32.50
2023-01-01T04:57:32.354Z,31.50
2023-01-01T04:59:59.930Z,31.23
2023-01-01T05:02:27.812Z,31.95
2023-01-01T05:04:55.353Z,31.02
2023-01-01T05:07:22.804Z,32.42
2023-01-01T05:09:50.469Z,31.67
2023-01-01T05:12:18.106Z,31.55
2023-01-01T05:14:45.655Z,31.58
2023-01-01T05:17:13.119Z,31.77
2023-01-01T05:19:41.153Z,31.33
2023-01-01T05:22:10.851Z,32.05
2023-01-01T05:24:41.485Z,30.20
2023-01-01T05:27:09.101Z,32.25
2023-01-01T05:29:37.758Z,30.88
2023-01-01T05:32:05.331Z,28.83
2023-01-01T05:37:01.104Z,27.52
2023-01-01T05:39:28.567Z,29.48
2023-01-01T05:41:55.993Z,27.80
2023-01-01T05:44:23.855Z,26.83
2023-01-01T05:46:51.419Z,27.23
2023-01-01T05:49:19.063Z,28.20
2023-01-01T05:51:46.520Z,28.05
2023-01-01T05:56:43.016Z,28.15
2023-01-01T05:59:11.301Z,25.35
2023-01-01T06:01:45.207Z,27.98
2023-01-01T06:04:13.770Z,26.90
2023-01-01T06:06:41.217Z,28.67
2023-01-01T06:09:11.652Z,26.38
2023-01-01T06:11:40.272Z,25.48
2023-01-01T06:14:07.780Z,26.30
2023-01-01T06:16:35.663Z,27.00
2023-01-01T06:19:03.231Z,25.38
2023-01-01T06:21:31.262Z,25.20
2023-01-01T06:24:00.862Z,27.73
2023-01-01T06:26:31.323Z,27.83
2023-01-01T06:28:59.650Z,29.05
2023-01-01T06:31:28.664Z,27.65
2023-01-01T06:33:56.219Z,27.27
2023-01-01T06:36:25.236Z,26.65
2023-01-01T06:38:55.377Z,25.48
2023-01-01T06:41:24.822Z,26.35
2023-01-01T06:43:54.835Z,26.40
2023-01-01T06:46:25.718Z,25.73
2023-01-01T06:49:05.668Z,25.73
2023-01-01T06:51:38.491Z,26.08
2023-01-01T06:54:06.713Z,25.52
2023-01-01T06:56:34.592Z,25.23
2023-01-01T06:59:05.122Z,24.77
2023-01-01T07:01:43.895Z,24.63
2023-01-01T07:04:19.077Z,24.48
2023-01-01T07:06:46.745Z,25.65
2023-01-01T07:09:22.691Z,24.80
2023-01-01T07:11:50.372Z,26.20
2023-01-01T07:14:17.833Z,26.25
2023-01-01T07:16:45.430Z,28.98
2023-01-01T07:19:13.083Z,26.52
2023-01-01T07:21:44.815Z,28.20
2023-01-01T07:24:15.309Z,27.10
2023-01-01T07:26:42.881Z,25.42
2023-01-01T07:29:12.991Z,25.55
2023-01-01T07:31:42.254Z,27.40
2023-01-01T07:34:19.886Z,30.05
2023-01-01T07:36:47.478Z,31.58
2023-01-01T07:39:14.975Z,32.40
2023-01-01T07:41:42.578Z,33.17
2023-01-01T07:44:10.688Z,35.75
2023-01-01T07:46:38.255Z,33.50
2023-01-01T07:49:05.879Z,34.42
2023-01-01T07:51:33.862Z,34.38
2023-01-01T07:54:06.672Z,33.75
2023-01-01T07:56:36.560Z,34.13
2023-01-01T07:59:04.871Z,35.30
2023-01-01T08:01:35.852Z,34.00
2023-01-01T08:04:04.441Z,33.95
2023-01-01T08:06:32.209Z,30.83
2023-01-01T08:08:59.670Z,33.60
2023-01-01T08:11:27.318Z,34.83
2023-01-01T08:13:55.311Z,31.90
2023-01-01T08:16:22.970Z,33.05
2023-01-01T08:18:50.760Z,33.33
2023-01-01T08:21:18.411Z,33.22
2023-01-01T08:23:45.895Z,30.80
2023-01-01T08:26:16.757Z,25.58
2023-01-01T08:28:44.897Z,20.23
2023-01-01T08:31:12.352Z,21.25
2023-01-01T08:33:41.207Z,20.73
2023-01-01T08:36:12.720Z,21.05
2023-01-01T08:38:40.345Z,22.30
2023-01-01T08:41:07.976Z,21.10
2023-01-01T08:43:35.604Z,23.48
2023-01-01T08:46:04.076Z,21.60
2023-01-01T08:48:31.578Z,21.15
2023-01-01T08:51:00.532Z,23.77
2023-01-01T08:53:30.351Z,21.63
2023-01-01T08:56:04.029Z,21.80
2023-01-01T08:58:32.364Z,21.47
2023-01-01T09:01:00.253Z,19.83
2023-01-01T09:03:28.175Z,19.15
2023-01-01T09:05:56.025Z,18.42
2023-01-01T09:08:24.051Z,18.13
2023-01-01T09:10:52.065Z,18.70
2023-01-01T09:13:22.079Z,18.45
2023-01-01T09:15:49.680Z,17.65
2023-01-01T09:18:17.288Z,14.73
2023-01-01T09:20:44.721Z,16.52
2023-01-01T09:23:13.006Z,17.63
2023-01-01T09:25:40.796Z,14.68
2023-01-01T09:28:11.931Z,15.32
2023-01-01T09:30:39.552Z,16.13
2023-01-01T09:33:06.949Z,16.15
2023-01-01T09:35:34.563Z,15.60
2023-01-01T09:38:02.115Z,14.63
2023-01-01T09:40:49.196Z,14.07
2023-01-01T09:43:26.813Z,14.65
2023-01-01T09:46:06.613Z,14.15
2023-01-01T09:48:39.384Z,14.70
2023-01-01T09:51:17.175Z,15.52
2023-01-01T09:54:01.568Z,15.68
2023-01-01T09:56:33.610Z,15.00
2023-01-01T09:59:10.983Z,16.42
2023-01-01T10:02:10.048Z,15.00
2023-01-01T10:05:40.961Z,15.30
2023-01-01T10:08:48.635Z,15.65
2023-01-01T10:11:27.261Z,15.23
2023-01-01T10:14:01.383Z,15.20
2023-01-01T10:18:59.466Z,15.90
2023-01-01T10:21:43.517Z,15.30
2023-01-01T10:24:29.533Z,15.52
2023-01-01T10:26:58.154Z,14.40
2023-01-01T10:29:45.734Z,13.68
2023-01-01T10:32:21.183Z,14.18
2023-01-01T10:34:50.776Z,14.52
2023-01-01T10:37:22.069Z,14.10
2023-01-01T10:39:49.977Z,16.23
2023-01-01T10:42:17.761Z,16.67
2023-01-01T10:44:45.539Z,16.88
2023-01-01T10:47:30.246Z,17.38
2023-01-01T10:50:00.897Z,17.27
2023-01-01T10:52:38.439Z,18.92
2023-01-01T10:55:09.543Z,18.38
2023-01-01T10:57:38.798Z,19.05
2023-01-01T11:00:28.150Z,19.17
2023-01-01T11:03:22.166Z,20.02
2023-01-01T11:06:18.111Z,18.15
2023-01-01T11:08:53.989Z,18.40
2023-01-01T11:11:30.965Z,21.38
2023-01-01T11:14:04.561Z,20.23
2023-01-01T11:16:41.752Z,20.02
2023-01-01T11:19:43.153Z,21.33
2023-01-01T11:22:40.238Z,22.27
2023-01-01T11:25:21.864Z,24.15
2023-01-01T11:27:50.947Z,26.75
2023-01-01T11:31:05.730Z,25.70
2023-01-01T11:33:43.395Z,25.42
2023-01-01T11:36:14.655Z,22.92
2023-01-01T11:39:03.984Z,23.85
2023-01-01T11:41:52.878Z,22.07
2023-01-01T11:44:51.333Z,25.60
2023-01-01T11:47:33.554Z,25.15
2023-01-01T11:50:29.985Z,27.95
2023-01-01T11:53:01.933Z,31.02
2023-01-01T11:55:42.997Z,30.95
2023-01-01T11:58:47.030Z,31.05
2023-01-01T12:01:20.797Z,32.40
2023-01-01T12:03:53.791Z,36.23
2023-01-01T12:06:58.330Z,33.65
2023-01-01T12:10:13.276Z,35.10
2023-01-01T12:12:47.552Z,36.30
2023-01-01T12:15:20.962Z,37.08
2023-01-01T12:18:03.847Z,38.70
2023-01-01T12:20:44.802Z,36.80
2023-01-01T12:23:15.666Z,39.67
2023-01-01T12:25:46.903Z,37.95
2023-01-01T12:28:28.137Z,38.85
2023-01-01T12:31:14.312Z,37.63
2023-01-01T12:37:12.540Z,39.10
2023-01-01T12:40:22.754Z,36.60
2023-01-01T12:43:03.217Z,37.42
2023-01-01T12:46:05.767Z,37.35
2023-01-01T12:49:03.657Z,38.53
2023-01-01T12:51:38.055Z,37.92
2023-01-01T12:54:30.090Z,40.30
2023-01-01T12:59:42.730Z,39.53
2023-01-01T13:02:32.975Z,38.88
2023-01-01T13:05:26.394Z,38.58
2023-01-01T13:08:00.502Z,39.78
2023-01-01T13:10:50.151Z,44.50
2023-01-01T13:13:23.175Z,43.15
2023-01-01T13:15:54.365Z,41.83
2023-01-01T13:18:35.404Z,42.08
2023-01-01T13:21:06.630Z,38.25
2023-01-01T13:23:38.517Z,42.00
2023-01-01T13:26:18.326Z,41.05
2023-01-01T13:29:12.629Z,43.80
2023-01-01T13:31:48.984Z,43.83
2023-01-01T13:34:59.923Z,43.80
2023-01-01T13:37:32.464Z,43.65
2023-01-01T13:40:13.660Z,45.55
2023-01-01T13:43:02.388Z,63.58
2023-01-01T13:49:01.200Z,47.65
2023-01-01T13:52:06.321Z,47.65
2023-01-01T13:55:06.403Z,49.13
2023-01-01T13:58:05.857Z,47.58
2023-01-01T14:01:01.046Z,45.78
2023-01-01T14:06:05.813Z,46.05
2023-01-01T14:08:35.778Z,48.08
2023-01-01T14:11:27.008Z,48.20
2023-01-01T14:14:08.531Z,45.90
2023-01-01T14:16:40.147Z,48.37
2023-01-01T14:19:14.601Z,47.05
2023-01-01T14:21:51.399Z,44.33
2023-01-01T14:24:21.783Z,49.43
2023-01-01T14:26:55.028Z,47.60
2023-01-01T14:29:53.915Z,45.97
2023-01-01T14:32:39.474Z,46.13
2023-01-01T14:35:20.666Z,45.90
2023-01-01T14:37:52.045Z,47.85
2023-01-01T14:40:29.284Z,47.22
2023-01-01T14:43:10.532Z,47.00
2023-01-01T14:45:43.930Z,44.85
2023-01-01T14:48:22.517Z,59.75
2023-01-01T14:50:53.152Z,57.33
2023-01-01T14:53:29.511Z,49.67
2023-01-01T14:56:00.744Z,51.20
2023-01-01T14:58:31.573Z,47.35
2023-01-01T15:01:23.947Z,51.25
2023-01-01T15:04:23.799Z,46.85
2023-01-01T15:06:59.826Z,47.13
2023-01-01T15:09:32.306Z,47.65
2023-01-01T15:12:06.859Z,47.55
2023-01-01T15:14:43.908Z,47.28
2023-01-01T15:17:22.988Z,46.50
2023-01-01T15:20:23.839Z,45.22
2023-01-01T15:22:53.982Z,55.97
2023-01-01T15:25:23.596Z,49.72
2023-01-01T15:27:57.278Z,47.58
2023-01-01T15:30:34.787Z,49.17
2023-01-01T15:33:14.614Z,49.42
2023-01-01T15:35:48.426Z,49.95
2023-01-01T15:38:38.429Z,48.63
2023-01-01T15:41:49.934Z,48.88
2023-01-01T15:44:25.284Z,50.25
2023-01-01T15:46:53.009Z,49.63
2023-01-01T15:53:21.260Z,47.78
2023-01-01T15:56:22.021Z,50.78
2023-01-01T15:58:56.498Z,49.53
2023-01-01T16:01:46.317Z,49.60
2023-01-01T16:04:22.093Z,48.67
2023-01-01T16:06:55.705Z,48.97
2023-01-01T16:09:26.490Z,49.13
2023-01-01T16:11:57.510Z,49.00
2023-01-01T16:14:25.141Z,46.70
2023-01-01T16:17:16.375Z,46.30
2023-01-01T16:19:45.221Z,46.28
2023-01-01T16:22:15.872Z,47.03
2023-01-01T16:24:45.494Z,48.88
2023-01-01T16:27:13.520Z,45.88
2023-01-01T16:29:54.313Z,46.92
2023-01-01T16:32:28.916Z,48.70
2023-01-01T16:34:57.023Z,46.15
2023-01-01T16:37:24.923Z,47.88
2023-01-01T16:40:03.054Z,46.90
2023-01-01T16:42:34.979Z,47.45
2023-01-01T16:45:06.067Z,46.00
2023-01-01T16:47:39.490Z,47.85
2023-01-01T16:50:15.252Z,46.05
2023-01-01T16:52:47.330Z,46.38
2023-01-01T16:55:18.768Z,46.22
2023-01-01T16:58:46.861Z,46.67
2023-01-01T17:01:06.516Z,47.58
2023-01-01T17:06:21.096Z,43.03
2023-01-01T17:08:53.295Z,45.05
2023-01-01T17:11:36.867Z,43.75
2023-01-01T17:14:06.510Z,45.37
2023-01-01T17:16:39.109Z,44.63
2023-01-01T17:22:16.786Z,42.92
2023-01-01T17:25:21.175Z,42.60
2023-01-01T17:28:10.736Z,45.70
2023-01-01T17:30:45.358Z,42.55
2023-01-01T17:36:56.689Z,42.53
2023-01-01T17:45:30.299Z,42.20
2023-01-01T17:48:40.549Z,42.03
2023-01-01T17:55:35.119Z,44.22
2023-01-01T17:58:12.412Z,41.85
2023-01-01T18:00:49.064Z,43.17
2023-01-01T18:03:25.946Z,42.97
2023-01-01T18:05:59.517Z,41.95
2023-01-01T18:08:34.001Z,43.28
2023-01-01T18:11:01.804Z,43.17
2023-01-01T18:13:29.303Z,42.88
2023-01-01T18:16:04.664Z,43.25
2023-01-01T18:18:41.283Z,44.60
2023-01-01T18:21:15.173Z,44.80
2023-01-01T18:23:43.504Z,43.63
2023-01-01T18:26:11.637Z,43.13
2023-01-01T18:28:39.723Z,44.17
2023-01-01T18:31:15.891Z,44.65
2023-01-01T18:33:44.486Z,44.65
2023-01-01T18:36:14.906Z,42.45
2023-01-01T18:38:45.971Z,42.40
2023-01-01T18:41:31.150Z,42.25
2023-01-01T18:44:00.432Z,41.60
2023-01-01T18:46:40.604Z,42.92
2023-01-01T18:49:10.293Z,43.10
2023-01-01T18:51:41.135Z,44.17
2023-01-01T18:54:14.375Z,43.92
2023-01-01T18:56:43.472Z,42.63
2023-01-01T18:59:23.078Z,42.00
2023-01-01T19:01:59.099Z,42.35
2023-01-01T19:04:31.978Z,43.95
2023-01-01T19:07:12.585Z,44.20
2023-01-01T19:09:46.443Z,43.25
2023-01-01T19:12:18.952Z,40.45
2023-01-01T19:14:48.611Z,41.78
2023-01-01T19:17:23.261Z,41.83
2023-01-01T19:19:55.158Z,44.10
2023-01-01T19:22:33.643Z,43.83
2023-01-01T19:25:22.620Z,42.67
2023-01-01T19:27:53.567Z,43.80
2023-01-01T19:30:25.411Z,42.35
2023-01-01T19:32:53.305Z,41.80
2023-01-01T19:35:20.946Z,40.47
2023-01-01T19:37:48.567Z,41.58
2023-01-01T19:40:16.335Z,43.40
2023-01-01T19:46:10.540Z,42.97
2023-01-01T19:48:48.649Z,42.45
2023-01-01T19:51:27.821Z,40.47
2023-01-01T19:54:18.881Z,41.13
2023-01-01T19:57:07.656Z,39.38
2023-01-01T19:59:38.237Z,39.47
2023-01-01T20:02:43.852Z,40.58
2023-01-01T20:04:58.837Z,40.20
2023-01-01T20:07:29.940Z,38.72
2023-01-01T20:10:07.554Z,37.40
2023-01-01T20:12:37.546Z,39.40
2023-01-01T20:15:05.656Z,38.92
2023-01-01T20:17:39.055Z,40.20
2023-01-01T20:20:17.439Z,45.05
2023-01-01T20:22:45.650Z,48.25
2023-01-01T20:25:13.941Z,49.40
2023-01-01T20:28:00.644Z,47.42
2023-01-01T20:30:31.424Z,45.50
2023-01-01T20:32:59.603Z,46.03
2023-01-01T20:35:53.517Z,46.38
2023-01-01T20:38:29.980Z,44.22
2023-01-01T20:41:21.477Z,44.47
2023-01-01T20:43:54.387Z,39.33
2023-01-01T20:46:24.365Z,38.28
2023-01-01T20:48:54.852Z,38.80
2023-01-01T20:51:25.276Z,38.90
2023-01-01T20:53:54.349Z,38.60
2023-01-01T20:56:24.757Z,38.45
2023-01-01T20:59:00.120Z,36.75
2023-01-01T21:01:30.550Z,37.95
2023-01-01T21:03:58.175Z,38.88
2023-01-01T21:06:26.074Z,36.80
2023-01-01T21:08:53.541Z,36.83
2023-01-01T21:11:21.239Z,39.03
2023-01-01T21:13:49.489Z,38.38
2023-01-01T21:16:25.558Z,39.00
2023-01-01T21:18:53.101Z,40.47
2023-01-01T21:21:23.397Z,37.15
2023-01-01T21:23:52.708Z,38.72
2023-01-01T21:26:36.498Z,40.38
2023-01-01T21:29:22.443Z,38.10
2023-01-01T21:32:19.076Z,38.42
2023-01-01T21:34:48.998Z,37.75
2023-01-01T21:37:47.844Z,38.25
2023-01-01T21:40:21.204Z,39.17
2023-01-01T21:42:49.565Z,38.85
2023-01-01T21:45:28.974Z,37.00
2023-01-01T21:47:58.585Z,35.42
2023-01-01T21:50:26.655Z,36.00
2023-01-01T21:53:01.611Z,34.25
2023-01-01T21:55:51.703Z,36.67
2023-01-01T21:58:43.418Z,34.40
2023-01-01T22:01:23.579Z,34.03
2023-01-01T22:04:15.489Z,34.10
2023-01-01T22:06:45.864Z,34.65
2023-01-01T22:09:19.639Z,34.95
2023-01-01T22:11:48.081Z,34.75
2023-01-01T22:14:22.228Z,34.40
2023-01-01T22:16:54.648Z,35.60
2023-01-01T22:19:27.392Z,35.80
2023-01-01T22:21:55.099Z,38.17
2023-01-01T22:24:32.933Z,38.55
2023-01-01T22:27:25.090Z,39.75
2023-01-01T22:29:52.927Z,39.97
2023-01-01T22:32:29.682Z,42.03
2023-01-01T22:35:12.907Z,43.75
2023-01-01T22:37:41.833Z,42.05
2023-01-01T22:40:38.185Z,42.13
2023-01-01T22:43:33.819Z,43.03
2023-01-01T22:46:25.371Z,42.45
2023-01-01T22:49:00.375Z,43.90
2023-01-01T22:51:49.750Z,43.17
2023-01-01T22:54:20.465Z,42.55
2023-01-01T22:56:52.365Z,44.10
2023-01-01T22:59:21.702Z,42.33
2023-01-01T23:01:50.236Z,42.08
2023-01-01T23:04:23.474Z,42.03
2023-01-01T23:06:52.106Z,41.00
2023-01-01T23:09:24.232Z,43.40
2023-01-01T23:11:54.569Z,42.38
2023-01-01T23:14:41.317Z,42.25
2023-01-01T23:17:09.645Z,40.35
2023-01-01T23:19:42.844Z,43.58
2023-01-01T23:22:10.694Z,40.60
2023-01-01T23:24:38.315Z,41.67
2023-01-01T23:27:06.341Z,41.33
2023-01-01T23:29:37.680Z,42.38
2023-01-01T23:32:05.449Z,40.40
2023-01-01T23:34:38.644Z,41.13
2023-01-01T23:37:12.711Z,41.95
2023-01-01T23:39:40.714Z,42.25
2023-01-01T23:42:08.248Z,39.95
2023-01-01T23:44:36.647Z,40.30
2023-01-01T23:47:07.831Z,36.85
2023-01-01T23:49:35.764Z,40.50
2023-01-01T23:52:06.370Z,40.20
2023-01-01T23:54:35.846Z,41.65
2023-01-01T23:57:03.653Z,41.40
2023-01-01T23:59:35.132Z,41.08
